Time;durP1;ratioP1;P1;durP2;ratioP2;P2;SDS_P1;SDS_P2;PMS_P1;PMS_P2;Temp;Humidity;BMP_temperature;BMP_pressure;BME280_temperature;BME280_humidity;BME280_pressure;Samples;Min_cycle;Max_cycle;Signal;HPM_P1;HPM_P2
2022/07/14 00:00:08;;;;;;;1.50;1.40;;;15.00;99.90;;;;;;4941000;28;20489;-89
2022/07/14 00:06:16;;;;;;;1.73;1.60;;;15.30;99.90;;;;;;4974314;28;20074;-89
2022/07/14 00:08:45;;;;;;;3.47;1.85;;;15.20;99.90;;;;;;4941573;28;20408;-88
2022/07/14 00:11:11;;;;;;;1.48;1.30;;;15.20;99.90;;;;;;4965752;28;20061;-89
2022/07/14 00:13:37;;;;;;;5.90;1.58;;;15.10;99.90;;;;;;4974310;28;20082;-89
2022/07/14 00:16:04;;;;;;;3.28;1.63;;;15.10;99.90;;;;;;4957368;28;20070;-89
2022/07/14 00:22:53;;;;;;;4.85;1.63;;;15.00;99.90;;;;;;4974224;28;20560;-89
2022/07/14 00:25:19;;;;;;;1.67;1.47;;;15.00;99.90;;;;;;4941278;28;20050;-89
2022/07/14 00:27:47;;;;;;;2.03;1.47;;;14.90;99.90;;;;;;4925715;28;20406;-89
2022/07/14 00:30:14;;;;;;;4.78;2.08;;;14.90;99.90;;;;;;4957615;28;20297;-89
2022/07/14 00:36:21;;;;;;;5.10;1.73;;;14.80;99.90;;;;;;4973349;28;20085;-89
2022/07/14 00:39:24;;;;;;;2.00;1.30;;;14.70;99.90;;;;;;4941505;28;20059;-89
2022/07/14 00:41:49;;;;;;;1.70;1.20;;;14.60;99.90;;;;;;4956783;28;20784;-89
2022/07/14 00:44:17;;;;;;;4.17;1.37;;;14.60;99.90;;;;;;4938546;29;20054;-89
2022/07/14 00:46:43;;;;;;;2.85;1.33;;;14.50;99.90;;;;;;4969689;28;20078;-89
2022/07/14 00:49:09;;;;;;;2.90;1.73;;;15.30;99.90;;;;;;4956518;28;20129;-89
2022/07/14 00:51:35;;;;;;;3.30;1.53;;;14.40;99.90;;;;;;4973098;28;20050;-89
2022/07/14 00:54:05;;;;;;;3.80;1.27;;;14.40;99.90;;;;;;4941050;28;20456;-88
2022/07/14 00:56:33;;;;;;;3.15;1.33;;;13.70;99.90;;;;;;4925376;28;20326;-89
2022/07/14 00:59:01;;;;;;;5.53;1.63;;;14.30;99.90;;;;;;4956776;28;20054;-89
2022/07/14 01:01:32;;;;;;;1.98;1.42;;;14.20;99.90;;;;;;4956521;28;20403;-89
2022/07/14 01:04:03;;;;;;;2.72;1.85;;;14.20;99.90;;;;;;4941085;28;20090;-89
2022/07/14 01:06:31;;;;;;;1.77;1.25;;;13.40;99.90;;;;;;4956717;28;20062;-89
2022/07/14 01:08:57;;;;;;;5.15;1.30;;;14.10;99.90;;;;;;4957318;28;20114;-89
2022/07/14 01:11:27;;;;;;;1.87;1.00;;;14.10;99.90;;;;;;4928291;28;20046;-89
2022/07/14 01:14:03;;;;;;;5.10;1.77;;;14.10;99.90;;;;;;4960580;28;20290;-89
2022/07/14 01:20:12;;;;;;;1.90;1.17;;;14.00;99.90;;;;;;4977047;28;20877;-89
2022/07/14 01:22:38;;;;;;;2.63;1.20;;;13.10;99.90;;;;;;4976354;28;20047;-89
2022/07/14 01:25:10;;;;;;;2.55;1.45;;;13.90;99.90;;;;;;4960630;28;20560;-89
2022/07/14 01:27:46;;;;;;;1.98;1.17;;;13.90;99.90;;;;;;4960886;28;20409;-89
2022/07/14 01:33:53;;;;;;;1.60;1.40;;;13.80;99.90;;;;;;4974790;28;20038;-89
2022/07/14 01:36:19;;;;;;;4.30;1.60;;;13.70;99.90;;;;;;4927758;28;20429;-89
2022/07/14 01:39:25;;;;;;;5.03;1.65;;;13.70;99.90;;;;;;4927822;28;20055;-89
2022/07/14 01:45:34;;;;;;;6.50;2.13;;;13.70;99.90;;;;;;4976540;28;20034;-89
2022/07/14 01:48:00;;;;;;;1.92;1.30;;;13.70;99.90;;;;;;4943544;28;20053;-89
2022/07/14 01:50:26;;;;;;;3.20;1.13;;;13.60;99.90;;;;;;4927748;28;20125;-88
2022/07/14 01:52:52;;;;;;;3.63;1.35;;;13.60;99.90;;;;;;4943528;28;20054;-89
2022/07/14 01:55:17;;;;;;;1.23;1.13;;;13.60;99.90;;;;;;4927625;28;20575;-89
2022/07/14 01:57:43;;;;;;;1.40;1.30;;;13.50;99.90;;;;;;4959255;28;20051;-88
2022/07/14 02:00:09;;;;;;;1.30;1.20;;;13.50;99.90;;;;;;4943395;28;20500;-89
2022/07/14 02:02:36;;;;;;;2.15;1.30;;;13.50;99.90;;;;;;4943345;28;20138;-89
2022/07/14 02:05:02;;;;;;;1.15;1.05;;;13.40;99.90;;;;;;4959140;28;20050;-88
2022/07/14 02:07:28;;;;;;;2.20;1.20;;;13.40;99.90;;;;;;4943100;28;20051;-90
2022/07/14 02:12:51;;;;;;;;;;;;;;;;;;;;;
2022/07/14 02:15:29;;;;;;;3.63;1.48;;;13.10;99.90;;;;;;4944184;28;20051;-90
2022/07/14 02:17:57;;;;;;;2.10;1.45;;;12.50;99.90;;;;;;4974424;28;20057;-92
2022/07/14 02:20:25;;;;;;;3.50;1.85;;;13.10;99.90;;;;;;4941767;28;20511;-90
2022/07/14 02:22:53;;;;;;;2.38;1.30;;;13.00;99.90;;;;;;4926656;28;20062;-90
2022/07/14 02:25:20;;;;;;;1.65;1.20;;;13.00;99.90;;;;;;4925973;28;20082;-90
2022/07/14 02:27:46;;;;;;;2.10;1.67;;;12.80;99.90;;;;;;4941960;28;20051;-90
2022/07/14 02:30:15;;;;;;;1.15;1.00;;;12.90;99.90;;;;;;4942524;28;20046;-92
2022/07/14 02:32:43;;;;;;;1.53;1.40;;;12.90;99.90;;;;;;4958116;28;20074;-91
2022/07/14 02:35:11;;;;;;;2.05;1.35;;;12.90;99.90;;;;;;4965851;28;21091;-90
2022/07/14 02:37:37;;;;;;;1.52;1.10;;;12.90;99.90;;;;;;4957793;28;20242;-90
2022/07/14 02:40:06;;;;;;;1.77;1.45;;;12.80;99.90;;;;;;4974097;28;20604;-90
2022/07/14 02:42:32;;;;;;;2.65;1.30;;;12.70;99.90;;;;;;4941795;28;20051;-90
2022/07/14 02:45:02;;;;;;;5.30;1.63;;;12.70;99.90;;;;;;4957889;28;20073;-91
2022/07/14 02:47:28;;;;;;;2.58;1.85;;;12.70;99.90;;;;;;4973495;28;20074;-90
2022/07/14 02:49:56;;;;;;;2.57;1.83;;;12.70;99.90;;;;;;4957634;28;20050;-91
2022/07/14 02:52:33;;;;;;;2.65;1.58;;;12.60;99.90;;;;;;4953906;29;20192;-90
2022/07/14 02:55:00;;;;;;;2.47;1.95;;;12.60;99.90;;;;;;4939140;28;20062;-91
2022/07/14 02:57:35;;;;;;;4.72;2.05;;;12.50;99.90;;;;;;4941450;28;20069;-90
2022/07/14 03:00:01;;;;;;;4.85;2.03;;;11.40;99.90;;;;;;4973631;28;20047;-91
2022/07/14 03:02:30;;;;;;;3.30;1.53;;;11.40;99.90;;;;;;4941406;28;20397;-90
2022/07/14 03:04:58;;;;;;;3.03;2.05;;;13.30;99.90;;;;;;4942048;28;20055;-89
2022/07/14 03:07:30;;;;;;;3.58;1.48;;;12.30;99.90;;;;;;4926193;28;20053;-90
2022/07/14 03:09:56;;;;;;;2.60;1.60;;;12.30;99.90;;;;;;4941430;28;20046;-90
2022/07/14 03:12:21;;;;;;;2.38;1.55;;;12.30;99.90;;;;;;4941478;28;20106;-94
2022/07/14 03:14:57;;;;;;;2.47;1.50;;;12.20;99.90;;;;;;4957306;28;20430;-90
2022/07/14 03:17:25;;;;;;;1.83;1.52;;;12.20;99.90;;;;;;4941231;28;20290;-93
2022/07/14 03:19:54;;;;;;;3.03;1.52;;;12.30;99.90;;;;;;4941373;28;20047;-89
2022/07/14 03:22:19;;;;;;;3.85;1.67;;;12.20;99.90;;;;;;4957111;28;20125;-90
2022/07/14 03:24:45;;;;;;;9.03;1.67;;;12.20;99.90;;;;;;4956977;28;20098;-90
2022/07/14 03:27:12;;;;;;;1.87;1.77;;;12.10;99.90;;;;;;4972927;28;20043;-90
2022/07/14 03:29:41;;;;;;;2.58;1.20;;;12.10;99.90;;;;;;4941079;28;20053;-89
2022/07/14 03:32:11;;;;;;;2.15;1.77;;;12.10;99.90;;;;;;4972848;28;20110;-90
2022/07/14 03:34:36;;;;;;;1.58;1.42;;;12.10;99.90;;;;;;4940890;28;20379;-90
2022/07/14 03:37:02;;;;;;;1.63;1.50;;;12.00;99.90;;;;;;4972709;28;20058;-90
2022/07/14 03:39:31;;;;;;;1.83;1.38;;;12.10;99.90;;;;;;4924656;28;20129;-90
2022/07/14 03:41:57;;;;;;;6.75;1.60;;;12.00;99.90;;;;;;4940880;28;20150;-90
2022/07/14 03:44:28;;;;;;;1.88;1.30;;;12.00;99.90;;;;;;4957110;28;20114;-94
2022/07/14 03:46:56;;;;;;;3.95;1.65;;;12.00;99.90;;;;;;4940542;28;20050;-89
2022/07/14 03:49:27;;;;;;;2.33;1.70;;;12.00;99.90;;;;;;4940911;28;20097;-90
2022/07/14 03:51:53;;;;;;;3.75;1.38;;;12.10;99.90;;;;;;4941077;28;20055;-90
2022/07/14 03:54:19;;;;;;;3.63;1.63;;;12.10;99.90;;;;;;4940764;28;20429;-90
2022/07/14 03:56:45;;;;;;;1.90;1.73;;;12.00;99.90;;;;;;4924733;28;20054;-90
2022/07/14 03:59:10;;;;;;;1.50;1.40;;;12.10;99.90;;;;;;4940913;28;20413;-90
2022/07/14 04:01:45;;;;;;;1.70;1.30;;;12.10;99.90;;;;;;4940078;28;20058;-89
2022/07/14 04:04:16;;;;;;;2.40;1.75;;;12.10;99.90;;;;;;4956673;28;20086;-89
2022/07/14 04:06:47;;;;;;;2.58;1.80;;;11.20;99.90;;;;;;4940578;28;20133;-89
2022/07/14 04:09:12;;;;;;;2.63;1.70;;;12.20;99.90;;;;;;4956938;28;20054;-90
2022/07/14 04:11:38;;;;;;;3.07;1.33;;;12.20;99.90;;;;;;4972584;28;20058;-89
2022/07/14 04:14:09;;;;;;;2.63;2.17;;;12.20;99.90;;;;;;4941048;28;20043;-89
2022/07/14 04:16:39;;;;;;;4.50;1.63;;;12.30;99.90;;;;;;4956410;28;20047;-90
2022/07/14 04:19:07;;;;;;;1.83;1.50;;;12.30;99.90;;;;;;4941130;28;20054;-91
2022/07/14 04:21:36;;;;;;;3.85;1.85;;;12.30;99.90;;;;;;4940325;28;20039;-91
2022/07/14 04:24:05;;;;;;;2.15;1.67;;;12.30;99.90;;;;;;4940541;28;20386;-90
2022/07/14 04:26:33;;;;;;;3.13;1.88;;;12.20;99.90;;;;;;4940120;28;20050;-93
2022/07/14 04:29:00;;;;;;;1.95;1.77;;;11.40;99.90;;;;;;4940978;28;20051;-90
2022/07/14 04:31:25;;;;;;;3.58;1.65;;;12.50;99.90;;;;;;4972607;28;20061;-90
2022/07/14 04:34:00;;;;;;;3.73;2.77;;;12.50;99.90;;;;;;4956267;28;20046;-89
2022/07/14 04:36:26;;;;;;;4.32;2.50;;;12.80;99.90;;;;;;4971924;28;20051;-90
2022/07/14 04:38:52;;;;;;;4.40;2.43;;;12.50;99.90;;;;;;4940102;28;20058;-89
2022/07/14 04:41:18;;;;;;;7.23;2.10;;;12.60;99.90;;;;;;4972239;28;20054;-89
2022/07/14 04:43:48;;;;;;;2.47;1.95;;;12.60;99.90;;;;;;4955919;28;20135;-90
2022/07/14 04:46:14;;;;;;;3.28;2.15;;;12.70;99.90;;;;;;4944762;28;20065;-90
2022/07/14 04:54:08;;;;;;;11.38;3.20;;;12.90;99.90;;;;;;4960057;28;20053;-89
2022/07/14 04:56:34;;;;;;;2.40;2.20;;;13.00;99.90;;;;;;4959705;28;20051;-94
2022/07/14 04:59:00;;;;;;;4.50;2.07;;;13.10;99.90;;;;;;4975323;28;20799;-90
2022/07/14 05:01:28;;;;;;;4.40;2.40;;;13.20;99.90;;;;;;4959335;28;20038;-90
2022/07/14 05:03:56;;;;;;;2.30;1.98;;;13.40;99.90;;;;;;4958884;28;20050;-89
2022/07/14 05:06:22;;;;;;;2.67;1.95;;;13.50;99.90;;;;;;4927983;28;20051;-89
2022/07/14 05:08:47;;;;;;;5.13;2.73;;;13.60;99.90;;;;;;4943644;28;20058;-90
2022/07/14 05:11:13;;;;;;;3.50;2.07;;;13.70;99.90;;;;;;4959749;28;20056;-90
2022/07/14 05:13:54;;;;;;;5.22;2.50;;;13.80;99.90;;;;;;4975323;28;20397;-91
2022/07/14 05:16:25;;;;;;;3.22;2.08;;;13.80;99.90;;;;;;4943691;28;20053;-90
2022/07/14 05:18:51;;;;;;;2.83;2.63;;;13.90;99.90;;;;;;4943091;28;20523;-92
2022/07/14 05:21:17;;;;;;;6.17;1.90;;;14.00;99.90;;;;;;4959008;28;20090;-90
2022/07/14 05:23:43;;;;;;;5.07;2.17;;;14.20;99.90;;;;;;4975336;28;20121;-90
2022/07/14 05:26:14;;;;;;;4.43;1.90;;;13.40;99.90;;;;;;4943282;28;20145;-90
2022/07/14 05:28:43;;;;;;;4.47;2.10;;;14.60;99.90;;;;;;4943231;28;20047;-94
2022/07/14 05:31:12;;;;;;;4.43;1.65;;;14.70;99.90;;;;;;4975432;28;20056;-90
2022/07/14 05:33:40;;;;;;;3.00;2.50;;;14.90;99.90;;;;;;4942860;28;20489;-89
2022/07/14 05:36:07;;;;;;;3.67;1.77;;;15.10;99.90;;;;;;4974868;28;20489;-90
2022/07/14 05:38:35;;;;;;;2.78;1.40;;;15.20;99.90;;;;;;4975339;28;20051;-89
2022/07/14 05:41:02;;;;;;;2.63;1.60;;;15.30;99.90;;;;;;4974815;28;20253;-90
2022/07/14 05:43:31;;;;;;;3.22;1.83;;;15.30;99.90;;;;;;4975005;28;20053;-91
2022/07/14 05:46:08;;;;;;;3.22;1.27;;;15.30;99.90;;;;;;4942804;28;20133;-90
2022/07/14 05:48:35;;;;;;;2.00;1.35;;;15.50;99.90;;;;;;4942769;28;20506;-90
2022/07/14 05:51:05;;;;;;;3.20;2.03;;;15.70;99.90;;;;;;4942780;28;20054;-90
2022/07/14 05:53:43;;;;;;;;;;;;;;;;;;;;;
2022/07/14 05:56:10;;;;;;;2.67;2.47;;;15.20;99.90;;;;;;4958601;28;20397;-90
2022/07/14 05:58:37;;;;;;;5.32;2.00;;;16.40;99.90;;;;;;4958465;28;20058;-87
2022/07/14 06:01:06;;;;;;;2.10;1.73;;;16.80;99.90;;;;;;4941967;28;20043;-87
2022/07/14 06:03:32;;;;;;;3.15;1.65;;;16.80;99.90;;;;;;4942524;28;20050;-89
2022/07/14 06:06:02;;;;;;;1.85;1.48;;;17.00;99.90;;;;;;4958636;28;20490;-86
2022/07/14 06:08:28;;;;;;;4.35;1.40;;;17.30;99.90;;;;;;4958650;28;20050;-88
2022/07/14 06:10:57;;;;;;;2.90;1.65;;;16.60;99.90;;;;;;4941782;28;20078;-87
2022/07/14 06:13:29;;;;;;;2.30;1.38;;;17.60;99.90;;;;;;4958246;28;20054;-87
2022/07/14 06:15:56;;;;;;;2.60;1.05;;;17.70;99.90;;;;;;4942180;28;20054;-87
2022/07/14 06:18:22;;;;;;;1.77;1.55;;;17.80;99.90;;;;;;4942223;28;20184;-86
2022/07/14 06:20:48;;;;;;;;;;;17.10;99.90;;;;;;4941832;28;20104;-92
2022/07/14 06:23:15;;;;;;;2.72;1.52;;;17.80;99.90;;;;;;4958178;28;20360;-88
2022/07/14 06:25:41;;;;;;;1.38;1.23;;;17.80;99.90;;;;;;4958321;28;20200;-88
2022/07/14 06:28:08;;;;;;;4.63;1.20;;;17.60;99.90;;;;;;4973580;28;20548;-90
2022/07/14 06:30:36;;;;;;;1.45;0.98;;;17.80;99.90;;;;;;4925852;28;20512;-91
2022/07/14 06:33:02;;;;;;;2.03;1.30;;;18.10;99.90;;;;;;4957441;28;20039;-89
2022/07/14 06:35:28;;;;;;;1.55;1.33;;;18.20;99.90;;;;;;4937850;29;20055;-92
2022/07/14 06:37:55;;;;;;;2.13;1.48;;;18.30;99.90;;;;;;4954105;29;20062;-89
2022/07/14 06:40:22;;;;;;;8.55;1.58;;;18.30;99.90;;;;;;4922309;29;20051;-94
2022/07/14 06:42:47;;;;;;;;;;;18.40;99.90;;;;;;4939248;29;20047;-93
2022/07/14 06:45:16;;;;;;;1.55;0.80;;;18.30;99.90;;;;;;4938005;29;19922;-90
2022/07/14 06:47:42;;;;;;;1.50;1.10;;;18.30;99.90;;;;;;4955629;29;20043;-90
2022/07/14 06:50:09;;;;;;;1.05;0.70;;;18.30;99.90;;;;;;4937310;29;20040;-89
2022/07/14 06:52:42;;;;;;;2.28;1.25;;;18.20;99.90;;;;;;4922658;29;20095;-89
2022/07/14 06:55:08;;;;;;;3.13;0.68;;;18.20;99.90;;;;;;4937815;29;20055;-88
2022/07/14 06:57:34;;;;;;;;;;;18.30;99.90;;;;;;4922528;29;20110;-90
2022/07/14 07:00:02;;;;;;;3.08;1.20;;;18.30;99.90;;;;;;4938220;29;19926;-88
2022/07/14 07:02:28;;;;;;;2.72;1.50;;;18.20;99.90;;;;;;4954629;29;20101;-88
2022/07/14 07:07:42;;;;;;;1.60;1.25;;;18.40;99.90;;;;;;4937272;29;20134;-90
2022/07/14 07:10:10;;;;;;;2.60;1.42;;;18.40;99.90;;;;;;4953933;29;20586;-90
2022/07/14 07:12:38;;;;;;;2.63;0.75;;;18.40;99.90;;;;;;4937377;29;20054;-92
2022/07/14 07:15:07;;;;;;;1.90;1.45;;;18.40;99.90;;;;;;4953780;29;20054;-91
2022/07/14 07:17:33;;;;;;;1.02;0.95;;;18.30;99.90;;;;;;4921939;29;20175;-90
2022/07/14 07:20:00;;;;;;;2.65;1.25;;;18.20;99.90;;;;;;4937513;29;20126;-89
2022/07/14 07:22:28;;;;;;;1.25;0.80;;;18.20;99.90;;;;;;4938171;29;20134;-90
2022/07/14 07:24:55;;;;;;;1.88;1.10;;;18.10;99.90;;;;;;4937226;29;20134;-95
2022/07/14 07:27:21;;;;;;;2.08;1.38;;;18.00;99.90;;;;;;4921738;29;20137;-91
2022/07/14 07:29:49;;;;;;;1.05;0.95;;;18.20;99.90;;;;;;4937254;29;20095;-92
2022/07/14 07:32:15;;;;;;;3.03;1.17;;;18.30;99.90;;;;;;4953341;29;20202;-91
2022/07/14 07:34:41;;;;;;;1.05;0.90;;;18.30;99.90;;;;;;4921686;29;20051;-91
2022/07/14 07:37:07;;;;;;;2.45;1.25;;;18.20;99.90;;;;;;4937697;28;20070;-92
2022/07/14 07:39:34;;;;;;;0.70;0.70;;;18.10;99.90;;;;;;4956415;28;20050;-88
2022/07/14 07:42:02;;;;;;;0.93;0.73;;;18.10;99.90;;;;;;4972549;28;20105;-90
2022/07/14 07:44:30;;;;;;;0.60;0.60;;;18.10;99.90;;;;;;4972429;28;20450;-90
2022/07/14 07:46:56;;;;;;;3.33;0.75;;;18.20;99.90;;;;;;4940389;28;20126;-89
2022/07/14 07:49:22;;;;;;;;;;;18.30;99.90;;;;;;4956775;28;20054;-89
2022/07/14 07:51:48;;;;;;;0.93;0.70;;;18.30;99.90;;;;;;4940628;28;19922;-89
2022/07/14 07:54:14;;;;;;;0.80;0.77;;;18.30;99.90;;;;;;4972230;28;20374;-89
2022/07/14 07:56:40;;;;;;;1.33;0.90;;;18.20;99.90;;;;;;4956370;28;20457;-89
2022/07/14 07:59:06;;;;;;;3.40;0.77;;;18.00;99.90;;;;;;4940271;28;20046;-89
2022/07/14 08:01:32;;;;;;;1.02;0.68;;;18.00;99.90;;;;;;4972330;28;20069;-89
2022/07/14 08:04:05;;;;;;;1.73;0.70;;;18.10;99.90;;;;;;4956607;28;20189;-89
2022/07/14 08:06:31;;;;;;;0.80;0.68;;;18.20;99.90;;;;;;4940457;28;20055;-90
2022/07/14 08:08:57;;;;;;;1.63;1.20;;;18.20;99.90;;;;;;4972439;28;20105;-89
2022/07/14 08:11:25;;;;;;;6.30;0.90;;;18.30;99.90;;;;;;4972187;28;20298;-88
2022/07/14 08:13:51;;;;;;;1.08;0.95;;;18.40;99.90;;;;;;4972445;28;20297;-89
2022/07/14 08:16:16;;;;;;;0.85;0.80;;;18.60;99.90;;;;;;4923381;28;20430;-89
2022/07/14 08:18:42;;;;;;;1.00;0.70;;;18.70;99.90;;;;;;4957458;28;20046;-88
2022/07/14 08:21:08;;;;;;;1.10;0.80;;;18.90;99.90;;;;;;4959377;28;20046;-89
2022/07/14 08:23:33;;;;;;;0.70;0.70;;;19.00;99.90;;;;;;4960265;28;20054;-89
2022/07/14 08:26:02;;;;;;;0.57;0.57;;;19.10;99.90;;;;;;4959786;28;20498;-91
2022/07/14 08:28:28;;;;;;;0.60;0.60;;;19.20;99.90;;;;;;4975952;28;20046;-90
2022/07/14 08:30:54;;;;;;;2.25;0.68;;;19.30;99.90;;;;;;4944539;28;20070;-89
2022/07/14 08:33:20;;;;;;;1.95;0.47;;;19.40;99.90;;;;;;4928602;28;20090;-89
2022/07/14 08:35:47;;;;;;;0.77;0.68;;;19.40;99.90;;;;;;4976599;28;20110;-90
2022/07/14 08:38:13;;;;;;;0.80;0.63;;;19.60;99.90;;;;;;4976442;28;20051;-89
2022/07/14 08:40:39;;;;;;;2.30;0.60;;;19.70;99.90;;;;;;4944009;28;20043;-91
2022/07/14 08:43:05;;;;;;;2.72;1.08;;;19.70;99.90;;;;;;4943925;28;20054;-93
2022/07/14 08:45:41;;;;;;;1.13;0.68;;;19.70;99.90;;;;;;4975805;28;20477;-90
2022/07/14 08:48:18;;;;;;;2.80;1.43;;;19.60;99.90;;;;;;4978014;28;20154;-92
2022/07/14 08:50:45;;;;;;;0.40;0.40;;;19.60;99.90;;;;;;4978451;28;20058;-86
2022/07/14 08:53:12;;;;;;;0.60;0.60;;;19.50;99.90;;;;;;4959404;28;20138;-89
2022/07/14 08:55:41;;;;;;;1.33;1.23;;;19.50;99.90;;;;;;4949461;28;20051;-90
2022/07/14 08:58:12;;;;;;;1.73;1.00;;;18.50;99.90;;;;;;4944026;28;20050;-92
2022/07/14 09:00:38;;;;;;;3.25;0.68;;;19.10;99.90;;;;;;4944394;28;20047;-89
2022/07/14 09:03:07;;;;;;;4.53;0.50;;;19.40;99.90;;;;;;4944567;28;20054;-91
2022/07/14 09:06:01;;;;;;;1.27;0.93;;;20.50;99.90;;;;;;4960787;28;20050;-90
2022/07/14 09:12:36;;;;;;;1.55;1.00;;;19.70;99.90;;;;;;4977374;28;20074;-89
2022/07/14 09:18:12;;;;;;;1.48;0.73;;;19.70;99.90;;;;;;4977191;28;20105;-89
2022/07/14 09:24:21;;;;;;;2.13;0.80;;;19.80;99.90;;;;;;4976560;28;20057;-90
2022/07/14 09:26:49;;;;;;;1.00;0.93;;;19.80;99.90;;;;;;4975631;28;20046;-89
2022/07/14 09:29:20;;;;;;;0.73;0.40;;;19.80;99.90;;;;;;4975520;28;20090;-89
2022/07/14 09:31:47;;;;;;;2.83;0.70;;;19.80;99.90;;;;;;4975449;28;20516;-88
2022/07/14 09:34:31;;;;;;;1.50;0.82;;;19.70;99.90;;;;;;4928276;28;20141;-89
2022/07/14 09:41:20;;;;;;;1.93;1.00;;;19.70;99.90;;;;;;4975451;28;20049;-89
2022/07/14 09:44:05;;;;;;;1.70;1.23;;;19.70;99.90;;;;;;4943347;28;20297;-89
2022/07/14 09:46:48;;;;;;;2.75;0.57;;;19.70;99.90;;;;;;4927089;28;20205;-88
2022/07/14 09:49:15;;;;;;;2.47;0.40;;;19.80;99.90;;;;;;4959250;28;20490;-92
2022/07/14 09:52:02;;;;;;;0.90;0.63;;;19.90;99.90;;;;;;4975594;28;20050;-88
2022/07/14 09:54:44;;;;;;;1.75;0.60;;;20.00;99.90;;;;;;4943264;28;20486;-89
2022/07/14 09:57:13;;;;;;;2.80;1.25;;;20.10;99.90;;;;;;4943370;28;20138;-87
2022/07/14 09:59:56;;;;;;;1.30;0.70;;;20.00;99.90;;;;;;4958524;28;20494;-87
2022/07/14 10:02:30;;;;;;;2.28;0.45;;;20.00;99.90;;;;;;4942456;28;20489;-88
2022/07/14 10:05:07;;;;;;;0.60;0.60;;;19.90;99.90;;;;;;4942679;28;20046;-89
2022/07/14 10:07:35;;;;;;;0.90;0.90;;;19.90;99.90;;;;;;4942458;28;20058;-91
2022/07/14 10:10:21;;;;;;;0.63;0.60;;;19.90;99.90;;;;;;4974924;28;20054;-87
2022/07/14 10:12:50;;;;;;;0.70;0.70;;;19.80;99.90;;;;;;4942679;28;20062;-90
2022/07/14 10:15:16;;;;;;;2.20;0.80;;;19.80;99.90;;;;;;4959318;28;20051;-88
2022/07/14 10:17:42;;;;;;;2.25;0.80;;;19.80;99.90;;;;;;4958354;28;20055;-88
2022/07/14 10:20:12;;;;;;;2.10;0.98;;;19.80;99.90;;;;;;4958495;28;20042;-88
2022/07/14 10:22:38;;;;;;;1.13;0.77;;;19.80;99.90;;;;;;4974451;28;20178;-88
2022/07/14 10:25:06;;;;;;;1.13;0.60;;;19.80;99.90;;;;;;4958406;28;20240;-90
2022/07/14 10:27:32;;;;;;;0.50;0.50;;;19.80;99.90;;;;;;4974084;28;20047;-87
2022/07/14 10:29:58;;;;;;;1.13;0.73;;;19.80;99.90;;;;;;4942010;28;20077;-87
2022/07/14 10:32:35;;;;;;;2.15;0.82;;;19.80;99.90;;;;;;4957724;28;20102;-87
2022/07/14 10:35:19;;;;;;;0.52;0.52;;;19.80;99.90;;;;;;4941870;28;20440;-86
2022/07/14 10:38:04;;;;;;;0.90;0.73;;;19.80;99.90;;;;;;4958064;28;20055;-86
2022/07/14 10:41:07;;;;;;;4.63;0.80;;;19.90;99.90;;;;;;4957625;28;20498;-86
2022/07/14 10:43:51;;;;;;;0.85;0.50;;;20.00;99.90;;;;;;4957332;28;20130;-87
2022/07/14 10:46:33;;;;;;;0.82;0.50;;;20.10;99.90;;;;;;4957843;28;20054;-89
2022/07/14 10:49:00;;;;;;;0.70;0.57;;;20.10;99.90;;;;;;4942006;28;20051;-89
2022/07/14 10:51:28;;;;;;;0.88;0.85;;;20.10;99.90;;;;;;4941607;28;20054;-89
2022/07/14 10:54:13;;;;;;;1.13;0.50;;;20.10;99.90;;;;;;4941983;28;20093;-90
2022/07/14 10:56:41;;;;;;;0.60;0.60;;;20.10;99.90;;;;;;4973092;28;20047;-88
2022/07/14 10:59:26;;;;;;;1.17;0.55;;;20.10;99.90;;;;;;4925881;28;20118;-92
2022/07/14 11:02:31;;;;;;;0.47;0.40;;;20.20;99.90;;;;;;4973874;28;20062;-91
2022/07/14 11:05:10;;;;;;;0.82;0.80;;;20.10;99.90;;;;;;4932735;28;20063;-94
2022/07/14 11:07:56;;;;;;;2.95;1.05;;;20.20;99.90;;;;;;4941839;28;20429;-92
2022/07/14 11:10:25;;;;;;;1.23;0.40;;;20.90;99.90;;;;;;4941447;28;20057;-89
2022/07/14 11:13:06;;;;;;;0.40;0.40;;;20.20;99.90;;;;;;4973144;28;20142;-90
2022/07/14 11:16:03;;;;;;;1.90;1.27;;;20.20;99.90;;;;;;4956616;28;20050;-90
2022/07/14 11:18:37;;;;;;;0.55;0.55;;;20.10;99.90;;;;;;4937705;28;20054;-90
2022/07/14 11:21:12;;;;;;;1.10;0.60;;;20.00;99.90;;;;;;4973207;28;20053;-89
2022/07/14 11:23:50;;;;;;;2.15;0.65;;;20.00;99.90;;;;;;4940434;28;20497;-90
2022/07/14 11:26:44;;;;;;;0.50;0.50;;;20.00;99.90;;;;;;4957234;28;20078;-90
2022/07/14 11:29:13;;;;;;;3.70;1.20;;;20.20;99.90;;;;;;4973748;28;20396;-90
2022/07/14 11:31:43;;;;;;;1.13;0.70;;;20.20;99.90;;;;;;4942399;28;20063;-86
2022/07/14 11:37:08;;;;;;;1.30;0.80;;;20.20;99.90;;;;;;4961718;28;20065;-87
2022/07/14 11:39:38;;;;;;;1.55;0.50;;;20.10;99.90;;;;;;4947161;28;20521;-88
2022/07/14 11:42:11;;;;;;;0.60;0.60;;;20.80;99.90;;;;;;4947430;28;20057;-87
2022/07/14 11:44:40;;;;;;;0.93;0.63;;;20.10;99.90;;;;;;4978246;28;20051;-87
2022/07/14 11:47:29;;;;;;;2.35;0.65;;;20.10;99.90;;;;;;4941052;28;20058;-86
2022/07/14 11:50:07;;;;;;;3.80;0.52;;;20.20;99.90;;;;;;4941053;28;20545;-87
2022/07/14 11:52:53;;;;;;;;;;;;;;;;;;;;;
2022/07/14 11:59:23;;;;;;;2.33;0.70;;;20.30;99.90;;;;;;4951160;28;20448;-91
2022/07/14 12:01:51;;;;;;;0.65;0.63;;;20.20;99.90;;;;;;4940831;28;20479;-88
2022/07/14 12:04:20;;;;;;;0.60;0.40;;;20.40;99.90;;;;;;4940161;28;20129;-88
2022/07/14 12:06:50;;;;;;;0.60;0.60;;;20.60;99.90;;;;;;4956895;28;20046;-88
2022/07/14 12:09:29;;;;;;;0.68;0.60;;;20.90;99.90;;;;;;4941064;28;20115;-89
2022/07/14 12:11:55;;;;;;;0.65;0.57;;;21.00;99.90;;;;;;4940581;28;20043;-88
2022/07/14 12:14:21;;;;;;;1.33;0.98;;;21.10;99.90;;;;;;4956584;28;20481;-89
2022/07/14 12:16:47;;;;;;;;;;;21.10;99.90;;;;;;4973080;28;20050;-91
2022/07/14 12:19:28;;;;;;;1.00;0.90;;;21.50;99.90;;;;;;4972133;28;19928;-89
2022/07/14 12:22:01;;;;;;;4.10;1.13;;;21.80;99.90;;;;;;4972042;28;20191;-89
2022/07/14 12:24:28;;;;;;;1.00;0.90;;;21.50;99.90;;;;;;4940926;28;20074;-89
2022/07/14 12:27:08;;;;;;;1.40;0.95;;;21.40;99.90;;;;;;4956631;28;20393;-90
2022/07/14 12:29:35;;;;;;;0.60;0.60;;;21.30;99.90;;;;;;4956686;28;20055;-94
2022/07/14 12:32:04;;;;;;;0.88;0.60;;;21.60;99.90;;;;;;4972384;28;20501;-88
2022/07/14 12:34:33;;;;;;;2.22;0.57;;;21.20;99.90;;;;;;4940725;28;20055;-89
2022/07/14 12:37:04;;;;;;;1.95;0.57;;;21.30;99.90;;;;;;4955958;28;20059;-88
2022/07/14 12:39:33;;;;;;;0.63;0.55;;;21.20;99.90;;;;;;4924745;28;20564;-88
2022/07/14 12:42:08;;;;;;;6.35;1.60;;;21.60;99.90;;;;;;4939385;28;20045;-88
2022/07/14 12:44:56;;;;;;;1.38;1.00;;;21.00;99.90;;;;;;4940518;28;20050;-87
2022/07/14 12:47:23;;;;;;;0.63;0.63;;;21.00;99.90;;;;;;4972581;28;20042;-87
2022/07/14 12:49:50;;;;;;;4.28;0.77;;;20.90;99.90;;;;;;4939221;28;20051;-90
2022/07/14 12:52:16;;;;;;;0.85;0.70;;;20.70;99.90;;;;;;4972051;28;20046;-90
2022/07/14 12:54:43;;;;;;;0.52;0.52;;;20.60;99.90;;;;;;4955564;28;20061;-90
2022/07/14 12:57:23;;;;;;;2.20;0.88;;;20.50;99.90;;;;;;4939987;28;20055;-90
2022/07/14 12:59:53;;;;;;;0.82;0.80;;;20.50;99.90;;;;;;4939696;28;20047;-91
2022/07/14 13:02:22;;;;;;;0.90;0.82;;;20.50;99.90;;;;;;4972167;28;20059;-91
2022/07/14 13:05:10;;;;;;;4.13;0.80;;;20.40;99.90;;;;;;4955456;28;20093;-90
2022/07/14 13:07:39;;;;;;;2.30;1.58;;;20.40;99.90;;;;;;4959264;28;20405;-89
2022/07/14 13:10:09;;;;;;;0.85;0.55;;;20.30;99.90;;;;;;4942867;28;20093;-88
2022/07/14 13:12:36;;;;;;;1.30;0.70;;;20.30;99.90;;;;;;4975665;28;20058;-89
2022/07/14 13:15:20;;;;;;;3.85;0.65;;;20.30;99.90;;;;;;4975523;28;20138;-89
2022/07/14 13:17:59;;;;;;;2.92;0.60;;;20.20;99.90;;;;;;4975512;28;20043;-91
2022/07/14 13:20:47;;;;;;;1.83;0.47;;;20.20;99.90;;;;;;4975827;28;20121;-90
2022/07/14 13:23:36;;;;;;;1.42;0.80;;;20.10;99.90;;;;;;4958618;28;20081;-90
2022/07/14 13:26:11;;;;;;;1.42;0.60;;;20.10;99.90;;;;;;4959102;28;20053;-91
2022/07/14 13:28:52;;;;;;;0.88;0.60;;;20.00;99.90;;;;;;4959356;28;20086;-94
2022/07/14 13:31:24;;;;;;;1.10;0.65;;;20.00;99.90;;;;;;4976082;28;20058;-95
2022/07/14 13:33:51;;;;;;;1.27;0.68;;;19.90;99.90;;;;;;4943545;28;20051;-93
2022/07/14 13:36:45;;;;;;;;;;;;;;;;;;;;;
2022/07/14 13:39:14;;;;;;;1.27;0.75;;;19.90;99.90;;;;;;4975388;28;20497;-92
2022/07/14 13:41:41;;;;;;;2.38;0.85;;;19.90;99.90;;;;;;4927396;28;20042;-93
2022/07/14 13:44:10;;;;;;;1.52;0.50;;;20.00;99.90;;;;;;4975173;28;20046;-91
2022/07/14 13:46:36;;;;;;;0.63;0.63;;;20.00;99.90;;;;;;4959216;28;20081;-91
2022/07/14 13:49:06;;;;;;;1.40;1.02;;;19.90;99.90;;;;;;4942959;28;20054;-92
2022/07/14 13:54:21;;;;;;;1.05;0.65;;;19.90;99.90;;;;;;4961924;28;20096;-92
2022/07/14 13:56:48;;;;;;;0.60;0.60;;;20.50;99.90;;;;;;4927746;28;20093;-93
2022/07/14 13:59:29;;;;;;;1.63;0.40;;;19.90;99.90;;;;;;4942864;28;20502;-92
2022/07/14 14:02:06;;;;;;;1.00;0.63;;;19.20;99.90;;;;;;4974817;28;20457;-92
2022/07/14 14:04:32;;;;;;;3.05;0.80;;;20.10;99.90;;;;;;4958773;28;20499;-92
2022/07/14 14:06:58;;;;;;;2.42;1.00;;;20.20;99.90;;;;;;4926800;28;20129;-93